Terminal Aerodrome Forecast
Issued by NWS

Current Version | Previous Version | Text Only | Print | Product List | Glossary On
Versions: 1 2 3 4 5 6 7 8 9 10 11 12 13 14 15 16
000
FTUS45 KLKN 220520
TAFTPH
TAF
KTPH 220520Z 2206/2306 VRB06KT P6SM VCSH SCT020 OVC100
      TEMPO 2206/2210 15010KT BKN015
     FM221700 VRB06KT P6SM -SN BKN015 OVC080
     FM222200 18015KT 4SM -SN BLSN BKN020 OVC040
      TEMPO 2302/2306 18016G28KT 1SM BLSN BKN008=

USA.gov is the U.S. government's official web portal to all federal, state and local government web resources and services.